Search for airport 
image banner adimage banner adimage banner ad
image banner ad

00CN - Kitchen Creek Helibase

Located in Pine Valley, United States

ICAO - 00CN, IATA -

Data provided by Airmate  

General information

Coordinates: N32°43'39" W116°27'35"
Elevation is 3350 feet MSL.
 
View others Airports in California

Operational data

Special qualification required
Current time UTC:
Current local time:
Weather at : KSEE - Gillespie Field ( 49 km )
METAR: KSEE 240935Z AUTO 00000KT 10SM OVC015 18/15 A2999 RMK AO2
View NOTAMs / SUP AIP / TFR affecting this airport [VIEW]
Communications frequencies: [VIEW]

Runways:

Airport contact information

Address: Pine Valley United States

Satellite view of 00CN